createdAt,value
2023-03-20T00:00:58.378Z,85.36
2023-03-20T00:03:45.300Z,84.88
2023-03-20T00:06:24.377Z,85.11
2023-03-20T00:09:11.373Z,85.30
2023-03-20T00:11:55.406Z,85.41
2023-03-20T00:14:42.343Z,85.18
2023-03-20T00:17:30.361Z,85.46
2023-03-20T00:20:22.288Z,85.31
2023-03-20T00:23:03.306Z,85.45
2023-03-20T00:25:52.318Z,85.84
2023-03-20T00:28:44.433Z,85.96
2023-03-20T00:31:36.367Z,86.00
2023-03-20T00:34:19.415Z,86.23
2023-03-20T00:37:06.300Z,86.23
2023-03-20T00:39:40.459Z,86.18
2023-03-20T00:42:32.314Z,86.68
2023-03-20T00:45:05.656Z,86.20
2023-03-20T00:47:54.367Z,86.78
2023-03-20T00:50:32.264Z,86.64
2023-03-20T00:53:19.485Z,86.82
2023-03-20T00:55:52.433Z,86.67
2023-03-20T00:58:39.311Z,86.72
2023-03-20T01:01:13.328Z,86.83
2023-03-20T01:04:00.327Z,87.54
2023-03-20T01:06:33.393Z,87.23
2023-03-20T01:09:20.321Z,87.37
2023-03-20T01:12:00.442Z,87.30
2023-03-20T01:14:48.360Z,87.74
2023-03-20T01:17:34.317Z,87.79
2023-03-20T01:20:24.339Z,88.03
2023-03-20T01:22:57.449Z,87.77
2023-03-20T01:25:45.316Z,87.55
2023-03-20T01:28:30.358Z,87.78
2023-03-20T01:31:17.412Z,87.92
2023-03-20T01:33:51.614Z,88.07
2023-03-20T01:36:38.331Z,88.89
2023-03-20T01:39:19.332Z,88.25
2023-03-20T01:42:07.323Z,88.79
2023-03-20T01:44:42.458Z,88.47
2023-03-20T01:47:32.331Z,88.71
2023-03-20T01:50:34.499Z,88.90
2023-03-20T01:53:25.345Z,89.09
2023-03-20T01:56:02.431Z,88.84
2023-03-20T01:58:53.317Z,89.44
2023-03-20T02:01:39.337Z,89.26
2023-03-20T02:04:38.339Z,89.39
2023-03-20T02:07:28.337Z,89.41
2023-03-20T02:10:02.459Z,89.51
2023-03-20T02:12:50.362Z,89.88
2023-03-20T02:15:23.454Z,89.69
2023-03-20T02:18:10.352Z,89.99
2023-03-20T02:21:07.546Z,89.87
2023-03-20T02:24:13.338Z,90.59
2023-03-20T02:26:49.448Z,89.70
2023-03-20T02:30:14.343Z,90.54
2023-03-20T02:33:35.362Z,90.23
2023-03-20T02:36:45.338Z,90.38
2023-03-20T02:39:58.358Z,90.66
2023-03-20T02:43:20.348Z,90.65
2023-03-20T02:46:23.377Z,90.65
2023-03-20T02:49:22.362Z,91.12
2023-03-20T02:52:05.518Z,90.86
2023-03-20T02:55:00.358Z,90.93
2023-03-20T02:57:42.449Z,91.11
2023-03-20T03:00:44.350Z,91.19
2023-03-20T03:03:41.530Z,91.37
2023-03-20T03:06:36.352Z,91.23
2023-03-20T03:09:57.355Z,91.35
2023-03-20T03:12:57.367Z,90.99
2023-03-20T03:15:48.433Z,91.08
2023-03-20T03:18:30.452Z,91.20
2023-03-20T03:21:23.352Z,91.18
2023-03-20T03:23:56.486Z,91.08
2023-03-20T03:26:47.369Z,91.59
2023-03-20T03:29:24.775Z,91.31
2023-03-20T03:32:13.380Z,91.39
2023-03-20T03:34:46.917Z,91.21
2023-03-20T03:38:03.374Z,91.63
2023-03-20T03:40:48.474Z,91.30
2023-03-20T03:44:03.379Z,91.40
2023-03-20T03:46:54.490Z,91.72
2023-03-20T03:49:48.376Z,91.63
2023-03-20T03:52:26.475Z,91.39
2023-03-20T03:55:18.366Z,91.84
2023-03-20T03:58:04.395Z,91.74
2023-03-20T04:01:00.380Z,91.97
2023-03-20T04:03:57.406Z,91.76
2023-03-20T04:06:44.381Z,92.13
2023-03-20T04:09:17.521Z,92.05
2023-03-20T04:12:19.400Z,92.32
2023-03-20T04:15:13.375Z,92.18
2023-03-20T04:18:07.377Z,92.44
2023-03-20T04:20:55.405Z,92.37
2023-03-20T04:23:35.412Z,92.46
2023-03-20T04:26:29.376Z,92.75
2023-03-20T04:29:23.394Z,92.81
2023-03-20T04:32:10.393Z,92.81
2023-03-20T04:34:43.466Z,92.77
2023-03-20T04:37:30.410Z,92.99
2023-03-20T04:40:06.501Z,93.17
2023-03-20T04:42:53.407Z,93.28
2023-03-20T04:45:26.488Z,93.40
2023-03-20T04:48:13.408Z,93.15
2023-03-20T04:50:54.399Z,93.40
2023-03-20T04:53:48.401Z,93.57
2023-03-20T04:56:35.399Z,93.50
2023-03-20T04:59:08.494Z,93.42
2023-03-20T05:01:55.433Z,93.60
2023-03-20T05:04:28.636Z,93.77
2023-03-20T05:07:15.409Z,94.13
2023-03-20T05:09:55.405Z,94.44
2023-03-20T05:12:49.421Z,94.32
2023-03-20T05:15:36.617Z,94.45
2023-03-20T05:18:10.696Z,94.92
2023-03-20T05:20:57.480Z,95.20
2023-03-20T05:23:37.410Z,95.17
2023-03-20T05:26:31.397Z,95.21
2023-03-20T05:29:18.424Z,94.92
2023-03-20T05:31:51.573Z,94.78
2023-03-20T05:34:38.433Z,94.81
2023-03-20T05:37:18.415Z,94.35
2023-03-20T05:40:12.358Z,94.71
2023-03-20T05:43:06.427Z,94.41
2023-03-20T05:45:53.456Z,94.26
2023-03-20T05:48:26.585Z,94.19
2023-03-20T05:51:13.424Z,93.92
2023-03-20T05:53:46.526Z,93.74
2023-03-20T05:56:33.441Z,93.81
2023-03-20T05:59:06.627Z,93.38
2023-03-20T06:01:53.419Z,93.46
2023-03-20T06:04:33.404Z,92.82
2023-03-20T06:07:20.437Z,92.49
2023-03-20T06:10:00.415Z,92.36
2023-03-20T06:12:54.430Z,92.03
2023-03-20T06:15:48.477Z,91.96
2023-03-20T06:18:42.410Z,92.07
2023-03-20T06:21:29.450Z,91.52
2023-03-20T06:24:02.532Z,91.74
2023-03-20T06:26:49.442Z,91.73
2023-03-20T06:29:22.516Z,91.22
2023-03-20T06:32:09.437Z,91.17
2023-03-20T06:34:42.777Z,90.87
2023-03-20T06:37:29.424Z,90.38
2023-03-20T06:40:09.456Z,90.18
2023-03-20T06:43:03.429Z,89.82
2023-03-20T06:45:50.452Z,89.58
2023-03-20T06:48:23.563Z,89.57
2023-03-20T06:51:10.432Z,89.35
2023-03-20T06:53:44.315Z,88.80
2023-03-20T06:56:31.444Z,88.29
2023-03-20T06:59:04.540Z,87.83
2023-03-20T07:01:51.505Z,87.60
2023-03-20T07:04:24.605Z,87.29
2023-03-20T07:07:11.465Z,86.67
2023-03-20T07:09:45.284Z,86.43
2023-03-20T07:12:39.472Z,86.24
2023-03-20T07:15:26.458Z,85.34
2023-03-20T07:18:09.461Z,84.49
2023-03-20T07:21:05.449Z,84.12
2023-03-20T07:23:52.460Z,83.28
2023-03-20T07:26:28.598Z,82.69
2023-03-20T07:29:15.444Z,81.43
2023-03-20T07:31:48.716Z,81.29
2023-03-20T07:34:35.477Z,78.81
2023-03-20T07:37:08.617Z,78.22
2023-03-20T07:39:55.470Z,77.71
2023-03-20T07:42:35.453Z,77.00
2023-03-20T07:45:24.485Z,75.57
2023-03-20T07:48:04.541Z,74.15
2023-03-20T07:50:58.472Z,74.42
2023-03-20T07:53:45.476Z,73.59
2023-03-20T07:56:18.569Z,72.70
2023-03-20T07:59:05.472Z,72.16
2023-03-20T08:01:38.556Z,72.02
2023-03-20T08:04:27.457Z,71.71
2023-03-20T08:07:07.492Z,71.59
2023-03-20T08:09:55.442Z,70.90
2023-03-20T08:12:28.573Z,70.37
2023-03-20T08:15:16.743Z,68.49
2023-03-20T08:17:58.486Z,67.87
2023-03-20T08:20:52.481Z,68.05
2023-03-20T08:23:39.501Z,66.35
2023-03-20T08:26:12.700Z,65.46
2023-03-20T08:28:59.476Z,64.22
2023-03-20T08:31:33.130Z,64.27
2023-03-20T08:34:19.488Z,62.89
2023-03-20T08:36:59.504Z,62.15
2023-03-20T08:39:47.507Z,60.54
2023-03-20T08:42:22.853Z,59.01
2023-03-20T08:45:09.502Z,59.05
2023-03-20T08:47:42.569Z,58.22
2023-03-20T08:50:29.498Z,57.03
2023-03-20T08:53:02.622Z,56.84
2023-03-20T08:55:57.525Z,56.69
2023-03-20T08:58:30.735Z,56.16
2023-03-20T09:01:17.501Z,55.64
2023-03-20T09:03:57.500Z,55.31
2023-03-20T09:06:52.535Z,54.35
2023-03-20T09:09:46.510Z,52.92
2023-03-20T09:12:40.526Z,53.19
2023-03-20T09:15:28.377Z,51.93
2023-03-20T09:18:02.936Z,51.12
2023-03-20T09:20:50.517Z,48.71
2023-03-20T09:23:24.608Z,49.88
2023-03-20T09:26:11.498Z,49.18
2023-03-20T09:28:51.528Z,48.27
2023-03-20T09:31:38.563Z,47.90
2023-03-20T09:34:11.684Z,47.72
2023-03-20T09:36:58.523Z,45.07
2023-03-20T09:39:38.509Z,46.25
2023-03-20T09:42:32.524Z,45.14
2023-03-20T09:45:34.544Z,45.69
2023-03-20T09:48:46.517Z,44.92
2023-03-20T09:51:50.524Z,43.92
2023-03-20T09:54:23.687Z,45.20
2023-03-20T09:57:11.523Z,44.76
2023-03-20T09:59:44.971Z,44.46
2023-03-20T10:02:57.529Z,44.69
2023-03-20T10:05:41.510Z,45.33
2023-03-20T10:08:42.530Z,43.96
2023-03-20T10:11:46.533Z,43.30
2023-03-20T10:15:18.531Z,44.46
2023-03-20T10:18:13.517Z,44.39
2023-03-20T10:20:55.280Z,43.68
2023-03-20T10:24:10.618Z,43.71
2023-03-20T10:26:45.839Z,44.53
2023-03-20T10:29:53.545Z,43.04
2023-03-20T10:32:50.697Z,43.85
2023-03-20T10:35:52.591Z,44.10
2023-03-20T10:38:31.761Z,42.57
2023-03-20T10:41:27.539Z,42.62
2023-03-20T10:44:12.567Z,43.11
2023-03-20T10:47:09.589Z,42.44
2023-03-20T10:50:09.537Z,42.68
2023-03-20T10:53:00.575Z,42.42
2023-03-20T10:55:38.699Z,42.53
2023-03-20T10:58:30.545Z,41.64
2023-03-20T11:01:05.794Z,42.60
2023-03-20T11:03:52.627Z,43.00
2023-03-20T11:06:40.589Z,42.07
2023-03-20T11:09:39.576Z,42.57
2023-03-20T11:12:33.588Z,42.76
2023-03-20T11:15:34.564Z,42.34
2023-03-20T11:18:14.057Z,41.90
2023-03-20T11:21:04.571Z,42.89
2023-03-20T11:23:41.658Z,42.22
2023-03-20T11:26:43.681Z,42.59
2023-03-20T11:29:45.544Z,43.32
2023-03-20T11:32:46.662Z,42.77
2023-03-20T11:35:43.592Z,41.45
2023-03-20T11:38:30.596Z,42.01
2023-03-20T11:41:03.685Z,42.25
2023-03-20T11:43:50.570Z,42.77
2023-03-20T11:46:26.808Z,42.90
2023-03-20T11:49:27.584Z,40.04
2023-03-20T11:52:13.594Z,41.82
2023-03-20T11:55:03.595Z,42.19
2023-03-20T11:57:48.580Z,41.70
2023-03-20T12:00:49.605Z,41.78
2023-03-20T12:04:14.591Z,41.52
2023-03-20T12:07:25.598Z,40.62
2023-03-20T12:10:18.582Z,40.64
2023-03-20T12:13:23.613Z,40.48
2023-03-20T12:16:31.589Z,41.07
2023-03-20T12:19:39.599Z,40.73
2023-03-20T12:22:44.589Z,39.04
2023-03-20T12:25:28.806Z,40.12
2023-03-20T12:28:26.632Z,39.04
2023-03-20T12:31:13.133Z,40.70
2023-03-20T12:34:07.642Z,40.46
2023-03-20T12:36:49.685Z,40.30
2023-03-20T12:39:54.626Z,40.66
2023-03-20T12:42:30.988Z,39.86
2023-03-20T12:45:23.686Z,40.29
2023-03-20T12:48:36.636Z,39.91
2023-03-20T12:51:37.634Z,40.22
2023-03-20T12:54:48.616Z,39.52
2023-03-20T12:57:46.631Z,39.63
2023-03-20T13:00:39.107Z,39.79
2023-03-20T13:03:28.643Z,40.94
2023-03-20T13:06:17.646Z,40.99
2023-03-20T13:09:37.676Z,40.29
2023-03-20T13:12:39.644Z,41.80
2023-03-20T13:15:53.702Z,40.60
2023-03-20T13:18:51.642Z,40.55
2023-03-20T13:21:50.855Z,40.85
2023-03-20T13:24:56.664Z,40.50
2023-03-20T13:27:42.657Z,41.15
2023-03-20T13:30:47.646Z,40.87
2023-03-20T13:34:01.652Z,40.71
2023-03-20T13:37:24.432Z,41.25
2023-03-20T13:40:25.644Z,40.86
2023-03-20T13:43:31.662Z,41.62
2023-03-20T13:46:33.693Z,41.51
2023-03-20T13:49:29.671Z,41.82
2023-03-20T13:52:26.734Z,40.84
2023-03-20T13:55:47.679Z,42.45
2023-03-20T13:58:48.812Z,42.13
2023-03-20T14:01:59.710Z,42.60
2023-03-20T14:04:46.674Z,43.40
2023-03-20T14:07:44.541Z,43.17
2023-03-20T14:10:41.688Z,43.72
2023-03-20T14:13:24.951Z,44.21
2023-03-20T14:16:18.664Z,43.36
2023-03-20T14:19:03.651Z,43.54
2023-03-20T14:22:01.685Z,43.82
2023-03-20T14:24:55.670Z,45.02
2023-03-20T14:27:43.944Z,45.70
2023-03-20T14:30:37.843Z,45.36
2023-03-20T14:33:32.855Z,46.16
2023-03-20T14:36:27.681Z,47.07
2023-03-20T14:39:13.661Z,47.79
2023-03-20T14:42:10.704Z,48.07
2023-03-20T14:45:02.802Z,48.92
2023-03-20T14:47:49.702Z,49.76
2023-03-20T14:51:03.682Z,50.83
2023-03-20T14:53:50.680Z,51.77
2023-03-20T14:56:38.692Z,51.73
2023-03-20T14:59:30.706Z,52.24
2023-03-20T15:02:06.844Z,53.07
2023-03-20T15:04:53.680Z,53.63
2023-03-20T15:07:44.691Z,53.66
2023-03-20T15:10:39.685Z,54.05
2023-03-20T15:13:33.709Z,54.17
2023-03-20T15:16:31.089Z,54.57
2023-03-20T15:19:26.694Z,54.79
2023-03-20T15:22:00.953Z,55.73
2023-03-20T15:24:47.683Z,55.59
2023-03-20T15:27:21.186Z,55.68
2023-03-20T15:30:09.678Z,56.42
2023-03-20T15:32:46.108Z,56.43
2023-03-20T15:35:33.751Z,57.16
2023-03-20T15:38:19.703Z,57.91
2023-03-20T15:41:13.715Z,58.21
2023-03-20T15:44:07.706Z,58.13
2023-03-20T15:47:28.902Z,57.93
2023-03-20T15:50:26.704Z,58.37
2023-03-20T15:53:17.708Z,58.62
2023-03-20T15:56:16.980Z,59.03
2023-03-20T15:59:04.734Z,59.15
2023-03-20T16:01:38.897Z,59.24
2023-03-20T16:04:26.668Z,59.77
2023-03-20T16:07:07.002Z,59.61
2023-03-20T16:09:53.716Z,59.95
2023-03-20T16:12:35.123Z,60.37
2023-03-20T16:15:29.886Z,60.84
2023-03-20T16:18:13.714Z,60.98
2023-03-20T16:21:13.719Z,61.44
2023-03-20T16:24:03.716Z,61.33
2023-03-20T16:26:43.782Z,61.79
2023-03-20T16:29:40.726Z,62.24
2023-03-20T16:32:27.959Z,62.55
2023-03-20T16:35:03.878Z,62.83
2023-03-20T16:37:58.838Z,63.00
2023-03-20T16:40:35.171Z,63.19
2023-03-20T16:43:26.725Z,63.84
2023-03-20T16:46:01.870Z,64.03
2023-03-20T16:48:48.732Z,64.58
2023-03-20T16:51:36.301Z,65.12
2023-03-20T16:54:28.906Z,65.00
2023-03-20T16:57:10.718Z,65.46
2023-03-20T17:00:04.748Z,65.76
2023-03-20T17:02:58.745Z,66.36
2023-03-20T17:05:54.745Z,66.88
2023-03-20T17:08:55.781Z,67.26
2023-03-20T17:11:52.810Z,68.02
2023-03-20T17:14:53.116Z,68.49
2023-03-20T17:17:40.816Z,68.20
2023-03-20T17:20:18.224Z,68.59
2023-03-20T17:23:05.131Z,69.02
2023-03-20T17:25:45.785Z,69.20
2023-03-20T17:28:42.747Z,69.79
2023-03-20T17:31:27.789Z,70.13
2023-03-20T17:34:19.784Z,70.32
2023-03-20T17:36:52.978Z,70.72
2023-03-20T17:39:39.900Z,71.07
2023-03-20T17:42:26.592Z,71.40
2023-03-20T17:45:13.785Z,71.40
2023-03-20T17:47:55.783Z,71.71
2023-03-20T17:50:42.802Z,71.74
2023-03-20T17:53:42.796Z,71.95
2023-03-20T17:56:38.820Z,71.92
2023-03-20T17:59:26.822Z,72.43
2023-03-20T18:02:00.047Z,72.52
2023-03-20T18:04:46.823Z,73.37
2023-03-20T18:07:21.162Z,73.34
2023-03-20T18:10:07.885Z,73.60
2023-03-20T18:12:40.933Z,73.87
2023-03-20T18:15:30.829Z,74.25
2023-03-20T18:18:03.919Z,74.50
2023-03-20T18:20:50.829Z,75.18
2023-03-20T18:23:30.830Z,74.89
2023-03-20T18:26:34.815Z,74.90
2023-03-20T18:29:31.793Z,75.46
2023-03-20T18:32:25.785Z,75.95
2023-03-20T18:35:13.806Z,76.20
2023-03-20T18:37:48.974Z,75.92
2023-03-20T18:40:40.149Z,76.52
2023-03-20T18:43:20.825Z,76.55
2023-03-20T18:46:14.901Z,77.10
2023-03-20T18:49:04.823Z,77.14
2023-03-20T18:51:37.972Z,77.28
2023-03-20T18:54:24.821Z,78.27
2023-03-20T18:57:00.016Z,78.11
2023-03-20T18:59:46.820Z,77.88
2023-03-20T19:02:19.991Z,78.15
2023-03-20T19:05:06.830Z,78.71
2023-03-20T19:07:46.874Z,79.14
2023-03-20T19:10:52.821Z,79.47
2023-03-20T19:13:46.776Z,79.81
2023-03-20T19:16:41.883Z,80.64
2023-03-20T19:19:17.978Z,80.25
2023-03-20T19:22:05.198Z,80.92
2023-03-20T19:24:38.978Z,81.53
2023-03-20T19:27:25.823Z,81.45
2023-03-20T19:30:00.396Z,81.65
2023-03-20T19:32:48.954Z,83.53
2023-03-20T19:35:47.286Z,82.94
2023-03-20T19:38:31.633Z,83.11
2023-03-20T19:41:05.215Z,83.32
2023-03-20T19:43:53.996Z,83.78
2023-03-20T19:46:45.262Z,83.60
2023-03-20T19:49:32.423Z,84.39
2023-03-20T19:52:09.231Z,84.59
2023-03-20T19:55:02.643Z,84.68
2023-03-20T19:57:43.840Z,85.71
2023-03-20T20:03:46.865Z,86.11
2023-03-20T20:06:22.582Z,86.11
2023-03-20T20:09:10.878Z,87.22
2023-03-20T20:11:44.178Z,86.80
2023-03-20T20:14:30.858Z,87.28
2023-03-20T20:17:10.876Z,86.92
2023-03-20T20:20:07.011Z,87.31
2023-03-20T20:22:56.950Z,87.36
2023-03-20T20:25:36.852Z,87.45
2023-03-20T20:28:27.883Z,88.00
2023-03-20T20:31:05.974Z,87.88
2023-03-20T20:34:22.564Z,88.55
2023-03-20T20:40:06.914Z,88.38
2023-03-20T20:43:03.339Z,88.63
2023-03-20T20:46:02.930Z,88.81
2023-03-20T20:48:50.456Z,88.97
2023-03-20T20:51:23.986Z,89.03
2023-03-20T20:54:10.918Z,89.33
2023-03-20T20:56:44.013Z,89.15
2023-03-20T20:59:34.065Z,89.70
2023-03-20T21:02:15.636Z,89.61
2023-03-20T21:05:03.366Z,89.69
2023-03-20T21:07:36.997Z,89.72
2023-03-20T21:10:27.890Z,89.80
2023-03-20T21:13:01.078Z,89.83
2023-03-20T21:15:48.911Z,90.18
2023-03-20T21:18:28.927Z,89.84
2023-03-20T21:21:18.905Z,90.09
2023-03-20T21:23:55.400Z,89.87
2023-03-20T21:26:41.910Z,90.26
2023-03-20T21:29:21.892Z,90.15
2023-03-20T21:32:08.952Z,90.90
2023-03-20T21:34:43.976Z,90.12
2023-03-20T21:40:33.890Z,90.33
2023-03-20T21:43:28.875Z,90.09
2023-03-20T21:50:17.125Z,90.20
2023-03-20T21:56:13.291Z,90.11
2023-03-20T22:02:00.258Z,90.35
2023-03-20T22:08:38.155Z,90.41
2023-03-20T22:20:35.357Z,92.16
2023-03-20T22:23:51.649Z,91.64
2023-03-20T22:26:48.570Z,92.08
2023-03-20T22:32:35.018Z,92.02
2023-03-20T22:35:41.896Z,91.84
2023-03-20T22:44:43.825Z,92.45
2023-03-20T22:46:57.931Z,92.77
2023-03-20T22:49:51.937Z,92.79
2023-03-20T22:52:48.631Z,93.29
2023-03-20T22:55:33.946Z,93.39
2023-03-20T22:58:21.932Z,93.54
2023-03-20T23:01:01.963Z,93.46
2023-03-20T23:03:48.940Z,93.79
2023-03-20T23:06:31.051Z,94.25
2023-03-20T23:09:18.942Z,93.88
2023-03-20T23:11:52.061Z,94.04
2023-03-20T23:14:46.430Z,94.53
2023-03-20T23:17:33.934Z,94.47
2023-03-20T23:20:13.326Z,94.61
2023-03-20T23:23:02.978Z,94.66
2023-03-20T23:25:42.942Z,94.90
2023-03-20T23:28:36.938Z,94.99
2023-03-20T23:31:26.987Z,95.02
2023-03-20T23:34:08.924Z,95.12
2023-03-20T23:37:03.019Z,95.31
2023-03-20T23:39:49.938Z,95.61
2023-03-20T23:42:30.333Z,95.10
2023-03-20T23:45:20.087Z,95.50
2023-03-20T23:48:10.300Z,95.97
2023-03-20T23:50:57.947Z,95.74
2023-03-20T23:53:37.954Z,95.99
2023-03-20T23:56:31.997Z,95.74
2023-03-20T23:59:25.947Z,95.61
